sensor_id;sensor_type;location;lat;lon;timestamp;temperature;humidity
2893;DHT22;1456;51.840;12.184;2023-09-30T00:00:00;16.50;99.90
2893;DHT22;1456;51.840;12.184;2023-09-30T00:02:26;16.50;99.90
2893;DHT22;1456;51.840;12.184;2023-09-30T00:04:53;16.40;99.90
2893;DHT22;1456;51.840;12.184;2023-09-30T00:07:19;16.40;99.90
2893;DHT22;1456;51.840;12.184;2023-09-30T00:09:44;16.40;99.90
2893;DHT22;1456;51.840;12.184;2023-09-30T00:12:10;16.30;99.90
2893;DHT22;1456;51.840;12.184;2023-09-30T00:14:35;16.30;99.90
2893;DHT22;1456;51.840;12.184;2023-09-30T00:17:03;16.20;99.90
2893;DHT22;1456;51.840;12.184;2023-09-30T00:19:28;16.10;99.90
2893;DHT22;1456;51.840;12.184;2023-09-30T00:21:54;16.00;99.90
2893;DHT22;1456;51.840;12.184;2023-09-30T00:24:19;15.90;99.90
2893;DHT22;1456;51.840;12.184;2023-09-30T00:26:45;15.80;99.90
2893;DHT22;1456;51.840;12.184;2023-09-30T00:29:11;15.80;99.90
2893;DHT22;1456;51.840;12.184;2023-09-30T00:31:37;15.70;99.90
2893;DHT22;1456;51.840;12.184;2023-09-30T00:34:02;15.60;99.90
2893;DHT22;1456;51.840;12.184;2023-09-30T00:36:28;15.60;99.90
2893;DHT22;1456;51.840;12.184;2023-09-30T00:38:53;15.50;99.90
2893;DHT22;1456;51.840;12.184;2023-09-30T00:41:19;15.50;99.90
2893;DHT22;1456;51.840;12.184;2023-09-30T00:43:47;15.40;99.90
2893;DHT22;1456;51.840;12.184;2023-09-30T00:48:39;15.30;99.90
2893;DHT22;1456;51.840;12.184;2023-09-30T00:51:04;15.20;99.90
2893;DHT22;1456;51.840;12.184;2023-09-30T00:53:30;15.20;99.90
2893;DHT22;1456;51.840;12.184;2023-09-30T00:55:56;15.20;99.90
2893;DHT22;1456;51.840;12.184;2023-09-30T00:58:23;15.10;99.90
2893;DHT22;1456;51.840;12.184;2023-09-30T01:00:51;15.00;99.90
2893;DHT22;1456;51.840;12.184;2023-09-30T01:03:17;15.00;99.90
2893;DHT22;1456;51.840;12.184;2023-09-30T01:05:43;14.90;99.90
2893;DHT22;1456;51.840;12.184;2023-09-30T01:08:08;14.90;99.90
2893;DHT22;1456;51.840;12.184;2023-09-30T01:10:34;14.90;99.90
2893;DHT22;1456;51.840;12.184;2023-09-30T01:12:59;14.90;99.90
2893;DHT22;1456;51.840;12.184;2023-09-30T01:15:25;14.90;99.90
2893;DHT22;1456;51.840;12.184;2023-09-30T01:17:50;14.80;99.90
2893;DHT22;1456;51.840;12.184;2023-09-30T01:20:17;14.70;99.90
2893;DHT22;1456;51.840;12.184;2023-09-30T01:22:44;14.70;99.90
2893;DHT22;1456;51.840;12.184;2023-09-30T01:25:10;14.60;99.90
2893;DHT22;1456;51.840;12.184;2023-09-30T01:27:36;14.60;99.90
2893;DHT22;1456;51.840;12.184;2023-09-30T01:30:02;14.50;99.90
2893;DHT22;1456;51.840;12.184;2023-09-30T01:32:27;14.40;99.90
2893;DHT22;1456;51.840;12.184;2023-09-30T01:34:53;14.40;99.90
2893;DHT22;1456;51.840;12.184;2023-09-30T01:37:19;14.30;99.90
2893;DHT22;1456;51.840;12.184;2023-09-30T01:39:44;14.30;99.90
2893;DHT22;1456;51.840;12.184;2023-09-30T01:42:11;14.20;99.90
2893;DHT22;1456;51.840;12.184;2023-09-30T01:44:37;14.10;99.90
2893;DHT22;1456;51.840;12.184;2023-09-30T01:47:02;14.10;99.90
2893;DHT22;1456;51.840;12.184;2023-09-30T01:49:28;14.10;99.90
2893;DHT22;1456;51.840;12.184;2023-09-30T01:51:53;14.00;99.90
2893;DHT22;1456;51.840;12.184;2023-09-30T01:54:19;14.00;99.90
2893;DHT22;1456;51.840;12.184;2023-09-30T01:56:44;14.00;99.90
2893;DHT22;1456;51.840;12.184;2023-09-30T01:59:10;13.90;99.90
2893;DHT22;1456;51.840;12.184;2023-09-30T02:01:36;13.90;99.90
2893;DHT22;1456;51.840;12.184;2023-09-30T02:04:01;13.90;99.90
2893;DHT22;1456;51.840;12.184;2023-09-30T02:06:27;13.90;99.90
2893;DHT22;1456;51.840;12.184;2023-09-30T02:08:53;13.80;99.90
2893;DHT22;1456;51.840;12.184;2023-09-30T02:11:18;13.80;99.90
2893;DHT22;1456;51.840;12.184;2023-09-30T02:13:44;13.70;99.90
2893;DHT22;1456;51.840;12.184;2023-09-30T02:16:13;13.70;99.90
2893;DHT22;1456;51.840;12.184;2023-09-30T02:18:43;13.70;99.90
2893;DHT22;1456;51.840;12.184;2023-09-30T02:21:10;13.60;99.90
2893;DHT22;1456;51.840;12.184;2023-09-30T02:23:35;13.60;99.90
2893;DHT22;1456;51.840;12.184;2023-09-30T02:26:02;13.50;99.90
2893;DHT22;1456;51.840;12.184;2023-09-30T02:28:28;13.50;99.90
2893;DHT22;1456;51.840;12.184;2023-09-30T02:30:54;13.40;99.90
2893;DHT22;1456;51.840;12.184;2023-09-30T02:33:20;13.40;99.90
2893;DHT22;1456;51.840;12.184;2023-09-30T02:35:45;13.40;99.90
2893;DHT22;1456;51.840;12.184;2023-09-30T02:38:12;13.30;99.90
2893;DHT22;1456;51.840;12.184;2023-09-30T02:40:39;13.30;99.90
2893;DHT22;1456;51.840;12.184;2023-09-30T02:43:05;13.30;99.90
2893;DHT22;1456;51.840;12.184;2023-09-30T02:45:31;13.30;99.90
2893;DHT22;1456;51.840;12.184;2023-09-30T02:47:56;13.20;99.90
2893;DHT22;1456;51.840;12.184;2023-09-30T02:50:23;13.20;99.90
2893;DHT22;1456;51.840;12.184;2023-09-30T02:52:48;13.20;99.90
2893;DHT22;1456;51.840;12.184;2023-09-30T02:55:15;13.20;99.90
2893;DHT22;1456;51.840;12.184;2023-09-30T02:57:40;13.30;99.90
2893;DHT22;1456;51.840;12.184;2023-09-30T03:00:06;13.30;99.90
2893;DHT22;1456;51.840;12.184;2023-09-30T03:02:59;13.30;99.90
2893;DHT22;1456;51.840;12.184;2023-09-30T03:05:25;13.30;99.90
2893;DHT22;1456;51.840;12.184;2023-09-30T03:07:50;13.30;99.90
2893;DHT22;1456;51.840;12.184;2023-09-30T03:10:16;13.30;99.90
2893;DHT22;1456;51.840;12.184;2023-09-30T03:12:52;13.20;99.90
2893;DHT22;1456;51.840;12.184;2023-09-30T03:15:18;13.20;99.90
2893;DHT22;1456;51.840;12.184;2023-09-30T03:17:44;13.20;99.90
2893;DHT22;1456;51.840;12.184;2023-09-30T03:20:09;13.10;99.90
2893;DHT22;1456;51.840;12.184;2023-09-30T03:22:42;13.10;99.90
2893;DHT22;1456;51.840;12.184;2023-09-30T03:25:09;13.10;99.90
2893;DHT22;1456;51.840;12.184;2023-09-30T03:27:35;13.10;99.90
2893;DHT22;1456;51.840;12.184;2023-09-30T03:30:02;13.10;99.90
2893;DHT22;1456;51.840;12.184;2023-09-30T03:32:28;13.00;99.90
2893;DHT22;1456;51.840;12.184;2023-09-30T03:34:54;13.00;99.90
2893;DHT22;1456;51.840;12.184;2023-09-30T03:37:25;13.00;99.90
2893;DHT22;1456;51.840;12.184;2023-09-30T03:39:55;13.00;99.90
2893;DHT22;1456;51.840;12.184;2023-09-30T03:42:21;12.90;99.90
2893;DHT22;1456;51.840;12.184;2023-09-30T03:44:46;12.90;99.90
2893;DHT22;1456;51.840;12.184;2023-09-30T03:47:14;12.90;99.90
2893;DHT22;1456;51.840;12.184;2023-09-30T03:49:41;12.90;99.90
2893;DHT22;1456;51.840;12.184;2023-09-30T03:52:09;12.90;99.90
2893;DHT22;1456;51.840;12.184;2023-09-30T03:54:35;12.80;99.90
2893;DHT22;1456;51.840;12.184;2023-09-30T03:57:00;12.80;99.90
2893;DHT22;1456;51.840;12.184;2023-09-30T03:59:26;12.70;99.90
2893;DHT22;1456;51.840;12.184;2023-09-30T04:01:53;12.70;99.90
2893;DHT22;1456;51.840;12.184;2023-09-30T04:04:19;12.70;99.90
2893;DHT22;1456;51.840;12.184;2023-09-30T04:06:46;12.70;99.90
2893;DHT22;1456;51.840;12.184;2023-09-30T04:09:15;12.70;99.90
2893;DHT22;1456;51.840;12.184;2023-09-30T04:11:41;12.70;99.90
2893;DHT22;1456;51.840;12.184;2023-09-30T04:14:07;12.70;99.90
2893;DHT22;1456;51.840;12.184;2023-09-30T04:16:33;12.60;99.90
2893;DHT22;1456;51.840;12.184;2023-09-30T04:18:59;12.60;99.90
2893;DHT22;1456;51.840;12.184;2023-09-30T04:21:25;12.60;99.90
2893;DHT22;1456;51.840;12.184;2023-09-30T04:23:52;12.50;99.90
2893;DHT22;1456;51.840;12.184;2023-09-30T04:26:18;12.50;99.90
2893;DHT22;1456;51.840;12.184;2023-09-30T04:28:43;12.50;99.90
2893;DHT22;1456;51.840;12.184;2023-09-30T04:31:09;12.50;99.90
2893;DHT22;1456;51.840;12.184;2023-09-30T04:33:35;12.50;99.90
2893;DHT22;1456;51.840;12.184;2023-09-30T04:36:01;12.40;99.90
2893;DHT22;1456;51.840;12.184;2023-09-30T04:38:27;12.40;99.90
2893;DHT22;1456;51.840;12.184;2023-09-30T04:40:52;12.30;99.90
2893;DHT22;1456;51.840;12.184;2023-09-30T04:43:19;12.20;99.90
2893;DHT22;1456;51.840;12.184;2023-09-30T04:45:46;12.10;99.90
2893;DHT22;1456;51.840;12.184;2023-09-30T04:48:12;12.10;99.90
2893;DHT22;1456;51.840;12.184;2023-09-30T04:50:41;12.10;99.90
2893;DHT22;1456;51.840;12.184;2023-09-30T04:53:06;12.10;99.90
2893;DHT22;1456;51.840;12.184;2023-09-30T04:55:33;12.20;99.90
2893;DHT22;1456;51.840;12.184;2023-09-30T04:57:58;12.10;99.90
2893;DHT22;1456;51.840;12.184;2023-09-30T05:00:24;12.20;99.90
2893;DHT22;1456;51.840;12.184;2023-09-30T05:02:55;12.20;99.90
2893;DHT22;1456;51.840;12.184;2023-09-30T05:05:20;12.10;99.90
2893;DHT22;1456;51.840;12.184;2023-09-30T05:07:46;12.10;99.90
2893;DHT22;1456;51.840;12.184;2023-09-30T05:10:13;12.10;99.90
2893;DHT22;1456;51.840;12.184;2023-09-30T05:12:41;12.00;99.90
2893;DHT22;1456;51.840;12.184;2023-09-30T05:15:13;11.90;99.90
2893;DHT22;1456;51.840;12.184;2023-09-30T05:17:41;11.80;99.90
2893;DHT22;1456;51.840;12.184;2023-09-30T05:20:09;11.80;99.90
2893;DHT22;1456;51.840;12.184;2023-09-30T05:22:36;11.70;99.90
2893;DHT22;1456;51.840;12.184;2023-09-30T05:25:01;11.70;99.90
2893;DHT22;1456;51.840;12.184;2023-09-30T05:27:27;11.70;99.90
2893;DHT22;1456;51.840;12.184;2023-09-30T05:29:53;11.70;99.90
2893;DHT22;1456;51.840;12.184;2023-09-30T05:32:20;11.60;99.90
2893;DHT22;1456;51.840;12.184;2023-09-30T05:34:46;11.60;99.90
2893;DHT22;1456;51.840;12.184;2023-09-30T05:37:12;11.60;99.90
2893;DHT22;1456;51.840;12.184;2023-09-30T05:39:37;11.60;99.90
2893;DHT22;1456;51.840;12.184;2023-09-30T05:42:03;11.70;99.90
2893;DHT22;1456;51.840;12.184;2023-09-30T05:44:28;11.80;99.90
2893;DHT22;1456;51.840;12.184;2023-09-30T05:46:54;11.90;99.90
2893;DHT22;1456;51.840;12.184;2023-09-30T05:49:20;12.00;99.90
2893;DHT22;1456;51.840;12.184;2023-09-30T05:51:46;12.10;99.90
2893;DHT22;1456;51.840;12.184;2023-09-30T05:54:12;12.20;99.90
2893;DHT22;1456;51.840;12.184;2023-09-30T05:56:37;12.20;99.90
2893;DHT22;1456;51.840;12.184;2023-09-30T05:59:04;12.30;99.90
2893;DHT22;1456;51.840;12.184;2023-09-30T06:01:30;12.40;99.90
2893;DHT22;1456;51.840;12.184;2023-09-30T06:03:57;12.40;99.90
2893;DHT22;1456;51.840;12.184;2023-09-30T06:06:23;12.50;99.90
2893;DHT22;1456;51.840;12.184;2023-09-30T06:08:49;12.60;99.90
2893;DHT22;1456;51.840;12.184;2023-09-30T06:13:47;12.90;99.90
2893;DHT22;1456;51.840;12.184;2023-09-30T06:16:13;13.00;99.90
2893;DHT22;1456;51.840;12.184;2023-09-30T06:18:38;13.10;99.90
2893;DHT22;1456;51.840;12.184;2023-09-30T06:21:04;13.30;99.90
2893;DHT22;1456;51.840;12.184;2023-09-30T06:23:30;13.50;99.90
2893;DHT22;1456;51.840;12.184;2023-09-30T06:25:56;13.60;99.90
2893;DHT22;1456;51.840;12.184;2023-09-30T06:28:21;13.70;99.90
2893;DHT22;1456;51.840;12.184;2023-09-30T06:30:51;13.70;99.90
2893;DHT22;1456;51.840;12.184;2023-09-30T06:33:17;13.90;99.90
2893;DHT22;1456;51.840;12.184;2023-09-30T06:35:42;14.00;99.90
2893;DHT22;1456;51.840;12.184;2023-09-30T06:38:21;14.20;99.90
2893;DHT22;1456;51.840;12.184;2023-09-30T06:40:47;14.40;99.90
2893;DHT22;1456;51.840;12.184;2023-09-30T06:43:13;14.70;99.90
2893;DHT22;1456;51.840;12.184;2023-09-30T06:45:43;14.90;99.90
2893;DHT22;1456;51.840;12.184;2023-09-30T06:48:10;15.10;99.90
2893;DHT22;1456;51.840;12.184;2023-09-30T06:50:48;15.20;99.90
2893;DHT22;1456;51.840;12.184;2023-09-30T06:53:17;15.20;99.90
2893;DHT22;1456;51.840;12.184;2023-09-30T06:55:43;15.20;99.90
2893;DHT22;1456;51.840;12.184;2023-09-30T06:58:09;15.20;99.90
2893;DHT22;1456;51.840;12.184;2023-09-30T07:00:36;15.20;99.90
2893;DHT22;1456;51.840;12.184;2023-09-30T07:03:02;15.30;99.90
2893;DHT22;1456;51.840;12.184;2023-09-30T07:05:28;15.20;99.90
2893;DHT22;1456;51.840;12.184;2023-09-30T07:07:55;15.10;99.90
2893;DHT22;1456;51.840;12.184;2023-09-30T07:10:22;15.00;99.90
2893;DHT22;1456;51.840;12.184;2023-09-30T07:12:47;15.00;99.90
2893;DHT22;1456;51.840;12.184;2023-09-30T07:15:13;14.90;99.90
2893;DHT22;1456;51.840;12.184;2023-09-30T07:17:39;14.80;99.90
2893;DHT22;1456;51.840;12.184;2023-09-30T07:20:05;14.80;99.90
2893;DHT22;1456;51.840;12.184;2023-09-30T07:22:31;14.80;99.90
2893;DHT22;1456;51.840;12.184;2023-09-30T07:24:56;14.90;99.90
2893;DHT22;1456;51.840;12.184;2023-09-30T07:27:23;15.20;99.90
2893;DHT22;1456;51.840;12.184;2023-09-30T07:29:49;15.30;99.90
2893;DHT22;1456;51.840;12.184;2023-09-30T07:32:14;15.60;99.90
2893;DHT22;1456;51.840;12.184;2023-09-30T07:34:40;15.50;99.90
2893;DHT22;1456;51.840;12.184;2023-09-30T07:37:05;15.70;99.90
2893;DHT22;1456;51.840;12.184;2023-09-30T07:39:31;15.90;99.90
2893;DHT22;1456;51.840;12.184;2023-09-30T07:41:56;15.90;99.90
2893;DHT22;1456;51.840;12.184;2023-09-30T07:44:22;15.90;99.90
2893;DHT22;1456;51.840;12.184;2023-09-30T07:46:47;15.80;99.90
2893;DHT22;1456;51.840;12.184;2023-09-30T07:49:13;15.50;99.90
2893;DHT22;1456;51.840;12.184;2023-09-30T07:51:38;15.40;99.90
2893;DHT22;1456;51.840;12.184;2023-09-30T07:54:05;15.60;99.90
2893;DHT22;1456;51.840;12.184;2023-09-30T07:56:30;15.70;99.90
2893;DHT22;1456;51.840;12.184;2023-09-30T07:58:56;15.80;99.90
2893;DHT22;1456;51.840;12.184;2023-09-30T08:01:21;15.90;99.90
2893;DHT22;1456;51.840;12.184;2023-09-30T08:03:47;16.10;99.90
2893;DHT22;1456;51.840;12.184;2023-09-30T08:06:13;16.20;99.90
2893;DHT22;1456;51.840;12.184;2023-09-30T08:08:38;16.40;99.90
2893;DHT22;1456;51.840;12.184;2023-09-30T08:11:04;16.60;99.90
2893;DHT22;1456;51.840;12.184;2023-09-30T08:13:31;16.70;99.90
2893;DHT22;1456;51.840;12.184;2023-09-30T08:15:57;16.90;99.90
2893;DHT22;1456;51.840;12.184;2023-09-30T08:18:23;16.90;99.90
2893;DHT22;1456;51.840;12.184;2023-09-30T08:20:48;17.00;99.90
2893;DHT22;1456;51.840;12.184;2023-09-30T08:23:14;17.20;99.90
2893;DHT22;1456;51.840;12.184;2023-09-30T08:25:40;17.30;99.90
2893;DHT22;1456;51.840;12.184;2023-09-30T08:28:05;17.40;99.90
2893;DHT22;1456;51.840;12.184;2023-09-30T08:30:34;17.50;99.90
2893;DHT22;1456;51.840;12.184;2023-09-30T08:32:59;17.50;99.90
2893;DHT22;1456;51.840;12.184;2023-09-30T08:35:25;17.60;99.90
2893;DHT22;1456;51.840;12.184;2023-09-30T08:37:50;17.70;99.90
2893;DHT22;1456;51.840;12.184;2023-09-30T08:40:22;17.80;99.90
2893;DHT22;1456;51.840;12.184;2023-09-30T08:42:49;17.70;99.90
2893;DHT22;1456;51.840;12.184;2023-09-30T08:45:16;17.50;99.90
2893;DHT22;1456;51.840;12.184;2023-09-30T08:47:42;17.70;99.90
2893;DHT22;1456;51.840;12.184;2023-09-30T08:50:08;17.80;99.90
2893;DHT22;1456;51.840;12.184;2023-09-30T08:52:37;17.90;99.90
2893;DHT22;1456;51.840;12.184;2023-09-30T08:55:03;18.20;99.90
2893;DHT22;1456;51.840;12.184;2023-09-30T08:57:30;18.40;99.90
2893;DHT22;1456;51.840;12.184;2023-09-30T08:59:56;18.60;99.90
2893;DHT22;1456;51.840;12.184;2023-09-30T09:02:21;18.50;99.90
2893;DHT22;1456;51.840;12.184;2023-09-30T09:04:47;18.60;99.90
2893;DHT22;1456;51.840;12.184;2023-09-30T09:07:14;18.70;99.90
2893;DHT22;1456;51.840;12.184;2023-09-30T09:09:40;18.80;99.90
2893;DHT22;1456;51.840;12.184;2023-09-30T09:12:06;19.00;99.90
2893;DHT22;1456;51.840;12.184;2023-09-30T09:17:05;19.20;99.90
2893;DHT22;1456;51.840;12.184;2023-09-30T09:19:31;18.90;99.90
2893;DHT22;1456;51.840;12.184;2023-09-30T09:22:00;19.00;99.90
2893;DHT22;1456;51.840;12.184;2023-09-30T09:24:30;19.30;99.90
2893;DHT22;1456;51.840;12.184;2023-09-30T09:27:09;19.60;99.90
2893;DHT22;1456;51.840;12.184;2023-09-30T09:29:35;19.70;99.90
2893;DHT22;1456;51.840;12.184;2023-09-30T09:32:08;19.90;99.90
2893;DHT22;1456;51.840;12.184;2023-09-30T09:34:34;20.10;99.90
2893;DHT22;1456;51.840;12.184;2023-09-30T09:37:00;20.20;99.90
2893;DHT22;1456;51.840;12.184;2023-09-30T09:39:37;20.30;99.90
2893;DHT22;1456;51.840;12.184;2023-09-30T09:42:02;20.50;99.90
2893;DHT22;1456;51.840;12.184;2023-09-30T09:44:28;20.40;99.50
2893;DHT22;1456;51.840;12.184;2023-09-30T09:46:54;20.10;99.90
2893;DHT22;1456;51.840;12.184;2023-09-30T09:49:21;20.10;99.90
2893;DHT22;1456;51.840;12.184;2023-09-30T09:51:47;20.10;99.80
2893;DHT22;1456;51.840;12.184;2023-09-30T09:54:16;20.00;99.90
2893;DHT22;1456;51.840;12.184;2023-09-30T09:56:45;20.20;99.90
2893;DHT22;1456;51.840;12.184;2023-09-30T09:59:11;20.80;99.90
2893;DHT22;1456;51.840;12.184;2023-09-30T10:01:38;21.30;99.10
2893;DHT22;1456;51.840;12.184;2023-09-30T10:04:05;21.60;98.50
2893;DHT22;1456;51.840;12.184;2023-09-30T10:06:31;21.80;99.40
2893;DHT22;1456;51.840;12.184;2023-09-30T10:09:05;22.20;98.40
2893;DHT22;1456;51.840;12.184;2023-09-30T10:11:33;22.40;98.00
2893;DHT22;1456;51.840;12.184;2023-09-30T10:13:58;22.60;95.00
2893;DHT22;1456;51.840;12.184;2023-09-30T10:21:32;21.90;95.90
2893;DHT22;1456;51.840;12.184;2023-09-30T10:26:43;21.60;94.50
2893;DHT22;1456;51.840;12.184;2023-09-30T10:29:09;21.20;95.40
2893;DHT22;1456;51.840;12.184;2023-09-30T10:31:35;21.50;95.00
2893;DHT22;1456;51.840;12.184;2023-09-30T10:34:17;22.10;94.50
2893;DHT22;1456;51.840;12.184;2023-09-30T10:36:44;22.80;93.60
2893;DHT22;1456;51.840;12.184;2023-09-30T10:39:12;23.30;92.20
2893;DHT22;1456;51.840;12.184;2023-09-30T10:46:52;23.10;92.00
2893;DHT22;1456;51.840;12.184;2023-09-30T10:51:58;22.70;92.20
2893;DHT22;1456;51.840;12.184;2023-09-30T10:54:28;22.50;92.10
2893;DHT22;1456;51.840;12.184;2023-09-30T10:56:54;22.20;91.50
2893;DHT22;1456;51.840;12.184;2023-09-30T10:59:21;22.80;93.00
2893;DHT22;1456;51.840;12.184;2023-09-30T11:01:47;23.20;90.50
2893;DHT22;1456;51.840;12.184;2023-09-30T11:04:13;23.00;92.40
2893;DHT22;1456;51.840;12.184;2023-09-30T11:06:41;23.30;90.90
2893;DHT22;1456;51.840;12.184;2023-09-30T11:09:08;23.20;90.10
2893;DHT22;1456;51.840;12.184;2023-09-30T11:11:40;22.80;90.20
2893;DHT22;1456;51.840;12.184;2023-09-30T11:16:52;23.60;89.00
2893;DHT22;1456;51.840;12.184;2023-09-30T11:19:18;24.20;88.50
2893;DHT22;1456;51.840;12.184;2023-09-30T11:21:50;23.60;89.40
2893;DHT22;1456;51.840;12.184;2023-09-30T11:24:16;23.20;89.30
2893;DHT22;1456;51.840;12.184;2023-09-30T11:26:42;22.80;87.60
2893;DHT22;1456;51.840;12.184;2023-09-30T11:29:09;22.80;88.40
2893;DHT22;1456;51.840;12.184;2023-09-30T11:31:40;23.40;89.10
2893;DHT22;1456;51.840;12.184;2023-09-30T11:34:06;24.30;88.70
2893;DHT22;1456;51.840;12.184;2023-09-30T11:36:36;25.50;85.90
2893;DHT22;1456;51.840;12.184;2023-09-30T11:39:02;26.60;87.20
2893;DHT22;1456;51.840;12.184;2023-09-30T11:41:39;27.00;77.50
2893;DHT22;1456;51.840;12.184;2023-09-30T11:44:08;26.20;80.60
2893;DHT22;1456;51.840;12.184;2023-09-30T11:46:52;26.00;80.40
2893;DHT22;1456;51.840;12.184;2023-09-30T11:49:32;26.50;77.30
2893;DHT22;1456;51.840;12.184;2023-09-30T11:52:00;26.40;78.10
2893;DHT22;1456;51.840;12.184;2023-09-30T11:54:32;26.40;81.40
2893;DHT22;1456;51.840;12.184;2023-09-30T11:56:59;27.40;80.60
2893;DHT22;1456;51.840;12.184;2023-09-30T11:59:25;27.10;75.00
2893;DHT22;1456;51.840;12.184;2023-09-30T12:01:51;25.90;74.90
2893;DHT22;1456;51.840;12.184;2023-09-30T12:04:19;25.20;76.70
2893;DHT22;1456;51.840;12.184;2023-09-30T12:06:45;25.30;78.80
2893;DHT22;1456;51.840;12.184;2023-09-30T12:09:12;26.10;79.30
2893;DHT22;1456;51.840;12.184;2023-09-30T12:11:42;26.70;74.30
2893;DHT22;1456;51.840;12.184;2023-09-30T12:14:10;27.30;73.30
2893;DHT22;1456;51.840;12.184;2023-09-30T12:16:35;27.20;71.70
2893;DHT22;1456;51.840;12.184;2023-09-30T12:19:01;27.10;72.00
2893;DHT22;1456;51.840;12.184;2023-09-30T12:21:26;27.30;69.90
2893;DHT22;1456;51.840;12.184;2023-09-30T12:23:52;27.40;68.90
2893;DHT22;1456;51.840;12.184;2023-09-30T12:26:17;28.00;67.90
2893;DHT22;1456;51.840;12.184;2023-09-30T12:28:45;27.80;68.40
2893;DHT22;1456;51.840;12.184;2023-09-30T12:31:11;27.80;67.80
2893;DHT22;1456;51.840;12.184;2023-09-30T12:33:36;28.00;68.70
2893;DHT22;1456;51.840;12.184;2023-09-30T12:36:02;27.70;70.60
2893;DHT22;1456;51.840;12.184;2023-09-30T12:38:27;26.40;69.80
2893;DHT22;1456;51.840;12.184;2023-09-30T12:40:54;24.90;74.60
2893;DHT22;1456;51.840;12.184;2023-09-30T12:43:19;24.10;75.20
2893;DHT22;1456;51.840;12.184;2023-09-30T12:45:45;23.30;75.50
2893;DHT22;1456;51.840;12.184;2023-09-30T12:48:11;23.00;78.60
2893;DHT22;1456;51.840;12.184;2023-09-30T12:50:37;23.20;80.60
2893;DHT22;1456;51.840;12.184;2023-09-30T12:53:02;23.60;82.30
2893;DHT22;1456;51.840;12.184;2023-09-30T12:55:28;24.20;77.30
2893;DHT22;1456;51.840;12.184;2023-09-30T12:57:54;25.20;79.00
2893;DHT22;1456;51.840;12.184;2023-09-30T13:00:19;26.70;74.00
2893;DHT22;1456;51.840;12.184;2023-09-30T13:02:47;28.10;74.50
2893;DHT22;1456;51.840;12.184;2023-09-30T13:05:13;29.60;70.60
2893;DHT22;1456;51.840;12.184;2023-09-30T13:07:39;30.40;64.30
2893;DHT22;1456;51.840;12.184;2023-09-30T13:10:05;30.20;65.20
2893;DHT22;1456;51.840;12.184;2023-09-30T13:12:31;30.70;62.80
2893;DHT22;1456;51.840;12.184;2023-09-30T13:14:58;31.10;63.00
2893;DHT22;1456;51.840;12.184;2023-09-30T13:17:24;31.40;60.30
2893;DHT22;1456;51.840;12.184;2023-09-30T13:19:50;30.90;58.30
2893;DHT22;1456;51.840;12.184;2023-09-30T13:22:17;29.20;59.40
2893;DHT22;1456;51.840;12.184;2023-09-30T13:24:42;27.30;61.00
2893;DHT22;1456;51.840;12.184;2023-09-30T13:27:08;26.30;61.60
2893;DHT22;1456;51.840;12.184;2023-09-30T13:29:33;25.40;65.50
2893;DHT22;1456;51.840;12.184;2023-09-30T13:31:59;24.60;66.30
2893;DHT22;1456;51.840;12.184;2023-09-30T13:34:25;24.10;68.70
2893;DHT22;1456;51.840;12.184;2023-09-30T13:36:50;23.70;69.00
2893;DHT22;1456;51.840;12.184;2023-09-30T13:39:16;23.50;71.30
2893;DHT22;1456;51.840;12.184;2023-09-30T13:41:45;23.40;70.80
2893;DHT22;1456;51.840;12.184;2023-09-30T13:44:12;23.30;73.10
2893;DHT22;1456;51.840;12.184;2023-09-30T13:46:38;23.60;72.00
2893;DHT22;1456;51.840;12.184;2023-09-30T13:49:04;23.60;70.50
2893;DHT22;1456;51.840;12.184;2023-09-30T13:51:29;23.80;72.00
2893;DHT22;1456;51.840;12.184;2023-09-30T13:53:55;23.80;71.40
2893;DHT22;1456;51.840;12.184;2023-09-30T13:56:20;24.30;69.80
2893;DHT22;1456;51.840;12.184;2023-09-30T13:58:46;25.00;69.50
2893;DHT22;1456;51.840;12.184;2023-09-30T14:01:14;26.10;68.00
2893;DHT22;1456;51.840;12.184;2023-09-30T14:03:41;27.20;67.40
2893;DHT22;1456;51.840;12.184;2023-09-30T14:06:13;27.90;63.10
2893;DHT22;1456;51.840;12.184;2023-09-30T14:08:39;28.30;62.60
2893;DHT22;1456;51.840;12.184;2023-09-30T14:11:08;28.70;67.40
2893;DHT22;1456;51.840;12.184;2023-09-30T14:13:33;29.30;63.00
2893;DHT22;1456;51.840;12.184;2023-09-30T14:15:59;29.50;60.50
2893;DHT22;1456;51.840;12.184;2023-09-30T14:18:24;29.80;59.40
2893;DHT22;1456;51.840;12.184;2023-09-30T14:20:50;29.80;63.60
2893;DHT22;1456;51.840;12.184;2023-09-30T14:23:16;30.10;60.40
2893;DHT22;1456;51.840;12.184;2023-09-30T14:25:42;30.70;61.80
2893;DHT22;1456;51.840;12.184;2023-09-30T14:28:08;31.00;58.70
2893;DHT22;1456;51.840;12.184;2023-09-30T14:30:33;31.30;62.00
2893;DHT22;1456;51.840;12.184;2023-09-30T14:32:59;31.50;59.30
2893;DHT22;1456;51.840;12.184;2023-09-30T14:35:24;31.20;59.40
2893;DHT22;1456;51.840;12.184;2023-09-30T14:37:50;30.80;57.50
2893;DHT22;1456;51.840;12.184;2023-09-30T14:40:16;31.00;58.70
2893;DHT22;1456;51.840;12.184;2023-09-30T14:42:42;31.40;59.20
2893;DHT22;1456;51.840;12.184;2023-09-30T14:45:08;31.50;56.70
2893;DHT22;1456;51.840;12.184;2023-09-30T14:47:34;30.50;57.10
2893;DHT22;1456;51.840;12.184;2023-09-30T14:49:59;29.00;56.40
2893;DHT22;1456;51.840;12.184;2023-09-30T14:52:28;27.80;58.20
2893;DHT22;1456;51.840;12.184;2023-09-30T14:54:54;26.80;62.60
2893;DHT22;1456;51.840;12.184;2023-09-30T14:57:20;26.30;65.00
2893;DHT22;1456;51.840;12.184;2023-09-30T14:59:46;25.50;63.60
2893;DHT22;1456;51.840;12.184;2023-09-30T15:02:12;25.20;66.70
2893;DHT22;1456;51.840;12.184;2023-09-30T15:04:37;24.80;66.90
2893;DHT22;1456;51.840;12.184;2023-09-30T15:07:03;24.60;69.30
2893;DHT22;1456;51.840;12.184;2023-09-30T15:09:29;24.30;68.60
2893;DHT22;1456;51.840;12.184;2023-09-30T15:11:54;24.00;67.30
2893;DHT22;1456;51.840;12.184;2023-09-30T15:14:20;23.70;65.60
2893;DHT22;1456;51.840;12.184;2023-09-30T15:16:46;23.20;69.30
2893;DHT22;1456;51.840;12.184;2023-09-30T15:19:12;22.80;68.50
2893;DHT22;1456;51.840;12.184;2023-09-30T15:21:38;22.50;70.20
2893;DHT22;1456;51.840;12.184;2023-09-30T15:24:04;22.30;71.00
2893;DHT22;1456;51.840;12.184;2023-09-30T15:26:30;22.20;72.80
2893;DHT22;1456;51.840;12.184;2023-09-30T15:28:56;22.10;72.70
2893;DHT22;1456;51.840;12.184;2023-09-30T15:31:28;22.00;75.30
2893;DHT22;1456;51.840;12.184;2023-09-30T15:33:57;21.80;74.90
2893;DHT22;1456;51.840;12.184;2023-09-30T15:36:24;21.60;74.40
2893;DHT22;1456;51.840;12.184;2023-09-30T15:38:51;21.60;78.90
2893;DHT22;1456;51.840;12.184;2023-09-30T15:41:20;21.50;80.00
2893;DHT22;1456;51.840;12.184;2023-09-30T15:43:48;21.40;78.50
2893;DHT22;1456;51.840;12.184;2023-09-30T15:46:14;21.10;78.70
2893;DHT22;1456;51.840;12.184;2023-09-30T15:48:39;20.80;78.80
2893;DHT22;1456;51.840;12.184;2023-09-30T15:51:05;20.60;81.50
2893;DHT22;1456;51.840;12.184;2023-09-30T15:53:31;20.50;82.40
2893;DHT22;1456;51.840;12.184;2023-09-30T15:56:04;20.40;84.10
2893;DHT22;1456;51.840;12.184;2023-09-30T15:58:29;20.40;85.80
2893;DHT22;1456;51.840;12.184;2023-09-30T16:00:55;20.60;87.70
2893;DHT22;1456;51.840;12.184;2023-09-30T16:03:20;20.60;86.80
2893;DHT22;1456;51.840;12.184;2023-09-30T16:05:47;20.60;86.10